Time;durP1;ratioP1;P1;durP2;ratioP2;P2;SDS_P1;SDS_P2;PMS_P1;PMS_P2;Temp;Humidity;BMP_temperature;BMP_pressure;BME280_temperature;BME280_humidity;BME280_pressure;Samples;Min_cycle;Max_cycle;Signal;HPM_P1;HPM_P2
2022/06/05 00:01:36;;;;;;;;;;;22.80;59.20;;;;;;5053135;28;19944;-77
2022/06/05 00:04:20;;;;;;;;;;;22.80;59.20;;;;;;5049954;28;19912;-77
2022/06/05 00:06:46;;;;;;;;;;;22.80;59.10;;;;;;5022449;28;19916;-77
2022/06/05 00:09:17;;;;;;;;;;;22.80;59.30;;;;;;5033667;28;19974;-77
2022/06/05 00:11:48;;;;;;;;;;;22.80;59.30;;;;;;5049466;28;19931;-77
2022/06/05 00:14:14;;;;;;;;;;;22.70;59.20;;;;;;5053498;28;19909;-77
2022/06/05 00:16:40;;;;;;;;;;;22.70;59.10;;;;;;5051614;28;19913;-77
2022/06/05 00:19:06;;;;;;;;;;;22.70;59.30;;;;;;5052469;28;19912;-77
2022/06/05 00:21:32;;;;;;;;;;;22.70;59.40;;;;;;5051636;28;19927;-78
2022/06/05 00:23:58;;;;;;;;;;;22.70;59.40;;;;;;5051372;28;19975;-78
2022/06/05 00:26:46;;;;;;;;;;;22.70;59.90;;;;;;5045521;28;19909;-78
2022/06/05 00:29:35;;;;;;;;;;;22.70;59.30;;;;;;5032386;28;19913;-77
2022/06/05 00:32:11;;;;;;;;;;;22.60;59.30;;;;;;5041938;28;19978;-77
2022/06/05 00:34:37;;;;;;;;;;;22.60;59.30;;;;;;5052481;28;19971;-77
2022/06/05 00:37:06;;;;;;;;;;;22.60;59.40;;;;;;5049396;28;20391;-77
2022/06/05 00:39:50;;;;;;;;;;;22.60;59.40;;;;;;5048250;28;19913;-77
2022/06/05 00:42:17;;;;;;;;;;;22.60;59.40;;;;;;5059106;28;19982;-77
2022/06/05 00:44:47;;;;;;;;;;;22.60;59.40;;;;;;5048073;28;20003;-77
2022/06/05 00:47:14;;;;;;;;;;;22.60;59.60;;;;;;5022831;28;19924;-77
2022/06/05 00:49:42;;;;;;;;;;;22.60;59.60;;;;;;5042296;28;19908;-77
2022/06/05 00:52:09;;;;;;;;;;;22.50;59.60;;;;;;5048908;28;19916;-77
2022/06/05 00:54:34;;;;;;;;;;;22.50;59.70;;;;;;5043571;28;19952;-77
2022/06/05 00:57:00;;;;;;;;;;;22.50;59.60;;;;;;5052395;28;19975;-77
2022/06/05 00:59:26;;;;;;;;;;;22.50;59.60;;;;;;5040431;28;19913;-78
2022/06/05 01:01:52;;;;;;;;;;;22.50;59.50;;;;;;5051086;28;19928;-77
2022/06/05 01:04:18;;;;;;;;;;;22.50;59.60;;;;;;5046461;28;19916;-77
2022/06/05 01:06:43;;;;;;;;;;;22.50;59.50;;;;;;5041362;28;19942;-77
2022/06/05 01:09:09;;;;;;;;;;;22.50;60.00;;;;;;5032885;28;19909;-77
2022/06/05 01:11:43;;;;;;;;;;;22.50;59.50;;;;;;5043729;28;20368;-77
2022/06/05 01:14:09;;;;;;;;;;;22.50;59.60;;;;;;5034789;28;19913;-77
2022/06/05 01:16:53;;;;;;;;;;;22.40;59.60;;;;;;5050857;28;19978;-77
2022/06/05 01:19:18;;;;;;;;;;;22.50;59.70;;;;;;5045423;28;19920;-78
2022/06/05 01:21:47;;;;;;;;;;;22.50;59.80;;;;;;5049649;28;19913;-77
2022/06/05 01:24:19;;;;;;;;;;;22.40;59.60;;;;;;5032045;28;20355;-77
2022/06/05 01:26:56;;;;;;;;;;;22.40;59.60;;;;;;5031594;28;19909;-77
2022/06/05 01:29:25;;;;;;;;;;;22.10;59.50;;;;;;5045024;28;19913;-77
2022/06/05 01:31:54;;;;;;;;;;;22.40;59.80;;;;;;5025078;28;20319;-77
2022/06/05 01:34:32;;;;;;;;;;;22.40;59.80;;;;;;5026756;28;19909;-77
2022/06/05 01:37:06;;;;;;;;;;;22.40;60.00;;;;;;5041063;28;19913;-77
2022/06/05 01:39:32;;;;;;;;;;;22.40;60.10;;;;;;5042119;28;20316;-77
2022/06/05 01:42:00;;;;;;;;;;;22.40;60.20;;;;;;5047039;28;20020;-77
2022/06/05 01:44:29;;;;;;;;;;;22.40;60.10;;;;;;5047724;28;19913;-77
2022/06/05 01:46:57;;;;;;;;;;;22.40;60.30;;;;;;5043721;28;19935;-77
2022/06/05 01:49:31;;;;;;;;;;;22.40;60.30;;;;;;5044629;28;19971;-78
2022/06/05 01:52:02;;;;;;;;;;;22.30;60.40;;;;;;5047998;28;19924;-78
2022/06/05 01:54:34;;;;;;;;;;;22.30;60.10;;;;;;5050461;28;19913;-77
2022/06/05 01:57:02;;;;;;;;;;;22.30;60.40;;;;;;5042252;28;19921;-77
2022/06/05 01:59:32;;;;;;;;;;;22.30;60.40;;;;;;5050574;28;19913;-77
2022/06/05 02:02:00;;;;;;;;;;;22.30;60.60;;;;;;5050310;28;19919;-77
2022/06/05 02:04:34;;;;;;;;;;;22.30;60.80;;;;;;5049733;28;19917;-77
2022/06/05 02:07:11;;;;;;;;;;;22.30;60.70;;;;;;5046702;28;20003;-77
2022/06/05 02:09:39;;;;;;;;;;;22.30;60.60;;;;;;5026437;28;20588;-76
2022/06/05 02:12:06;;;;;;;;;;;22.30;60.60;;;;;;5014086;28;19920;-76
2022/06/05 02:14:32;;;;;;;;;;;22.20;60.60;;;;;;5043271;28;19909;-76
2022/06/05 02:16:58;;;;;;;;;;;22.30;60.90;;;;;;5051355;28;20368;-77
2022/06/05 02:19:24;;;;;;;;;;;22.30;60.90;;;;;;5050172;28;19982;-77
2022/06/05 02:21:50;;;;;;;;;;;22.30;61.30;;;;;;5049907;28;19963;-77
2022/06/05 02:24:16;;;;;;;;;;;22.20;60.90;;;;;;5046602;28;20329;-77
2022/06/05 02:26:42;;;;;;;;;;;22.20;61.20;;;;;;5044113;28;20432;-78
2022/06/05 02:29:12;;;;;;;;;;;22.20;61.40;;;;;;5046065;28;19960;-78
2022/06/05 02:31:38;;;;;;;;;;;22.20;61.70;;;;;;5041087;28;19909;-78
2022/06/05 02:34:13;;;;;;;;;;;22.20;61.30;;;;;;5047076;28;19916;-76
2022/06/05 02:36:52;;;;;;;;;;;22.20;61.70;;;;;;5049526;28;20000;-78
2022/06/05 02:39:24;;;;;;;;;;;22.20;61.70;;;;;;5044000;28;19913;-77
2022/06/05 02:42:07;;;;;;;;;;;22.20;61.70;;;;;;5049216;28;19920;-78
2022/06/05 02:44:40;;;;;;;;;;;22.20;61.70;;;;;;5023389;28;19917;-78
2022/06/05 02:47:05;;;;;;;;;;;22.20;61.70;;;;;;5050301;28;19920;-77
2022/06/05 02:49:39;;;;;;;;;;;22.20;61.40;;;;;;5049273;28;19970;-77
2022/06/05 02:52:05;;;;;;;;;;;22.20;61.90;;;;;;5043094;28;19959;-77
2022/06/05 02:54:31;;;;;;;;;;;22.20;61.40;;;;;;5049921;28;19916;-77
2022/06/05 02:56:57;;;;;;;;;;;22.20;61.60;;;;;;5046939;28;19917;-77
2022/06/05 02:59:23;;;;;;;;;;;22.20;61.50;;;;;;5044282;28;20406;-77
2022/06/05 03:04:32;;;;;;;;;;;22.20;61.10;;;;;;5048724;28;19927;-77
2022/06/05 03:06:58;;;;;;;;;;;22.10;62.10;;;;;;5050063;28;20280;-77
2022/06/05 03:09:23;;;;;;;;;;;22.10;61.70;;;;;;5043599;28;19909;-77
2022/06/05 03:11:48;;;;;;;;;;;22.20;61.60;;;;;;5048179;28;19913;-77
2022/06/05 03:14:14;;;;;;;;;;;22.20;61.60;;;;;;5036518;28;19912;-78
2022/06/05 03:16:40;;;;;;;;;;;22.10;61.70;;;;;;5041842;28;20403;-78
2022/06/05 03:19:05;;;;;;;;;;;22.20;61.80;;;;;;5049888;28;19924;-77
2022/06/05 03:21:31;;;;;;;;;;;22.10;61.70;;;;;;5049569;28;19913;-77
2022/06/05 03:23:56;;;;;;;;;;;22.20;61.60;;;;;;5039230;28;19917;-77
2022/06/05 03:26:22;;;;;;;;;;;22.10;61.60;;;;;;5035675;28;20266;-78
2022/06/05 03:28:48;;;;;;;;;;;22.20;62.20;;;;;;5031947;28;19913;-77
2022/06/05 03:31:13;;;;;;;;;;;22.10;61.60;;;;;;5039725;28;19916;-76
2022/06/05 03:33:39;;;;;;;;;;;22.10;61.50;;;;;;5050659;28;19909;-76
2022/06/05 03:36:12;;;;;;;;;;;22.10;61.50;;;;;;5031930;28;19924;-76
2022/06/05 03:38:38;;;;;;;;;;;22.10;61.60;;;;;;5037687;28;20369;-76
2022/06/05 03:41:04;;;;;;;;;;;22.10;61.20;;;;;;5031288;28;19921;-76
2022/06/05 03:43:29;;;;;;;;;;;22.10;61.10;;;;;;5040619;28;20427;-76
2022/06/05 03:46:01;;;;;;;;;;;22.10;61.30;;;;;;5049423;28;19968;-76
2022/06/05 03:48:27;;;;;;;;;;;22.10;61.40;;;;;;5048709;28;19971;-77
2022/06/05 03:50:52;;;;;;;;;;;22.10;61.20;;;;;;5051667;28;20348;-77
2022/06/05 03:53:17;;;;;;;;;;;22.10;61.80;;;;;;5053298;28;19913;-77
2022/06/05 03:55:43;;;;;;;;;;;22.10;61.20;;;;;;5046650;28;19935;-77
2022/06/05 03:58:08;;;;;;;;;;;22.10;61.80;;;;;;5040563;28;19909;-77
2022/06/05 04:00:34;;;;;;;;;;;22.10;61.70;;;;;;5047637;28;20279;-76
2022/06/05 04:03:00;;;;;;;;;;;22.10;61.70;;;;;;5053611;28;20431;-76
2022/06/05 04:05:25;;;;;;;;;;;22.10;61.70;;;;;;5045465;28;19917;-76
2022/06/05 04:07:51;;;;;;;;;;;22.10;61.80;;;;;;5032509;28;19928;-77
2022/06/05 04:10:17;;;;;;;;;;;22.10;62.00;;;;;;5052252;28;19952;-78
2022/06/05 04:12:44;;;;;;;;;;;22.10;61.40;;;;;;5044966;28;19961;-78
2022/06/05 04:15:10;;;;;;;;;;;22.10;61.40;;;;;;5037771;28;19913;-77
2022/06/05 04:17:36;;;;;;;;;;;22.10;61.70;;;;;;5045359;28;19913;-77
2022/06/05 04:20:02;;;;;;;;;;;22.10;61.60;;;;;;5051801;28;19920;-77
2022/06/05 04:22:27;;;;;;;;;;;22.10;61.30;;;;;;5053577;28;19923;-77
2022/06/05 04:24:53;;;;;;;;;;;22.10;61.40;;;;;;5018102;28;19913;-77
2022/06/05 04:27:18;;;;;;;;;;;22.10;61.50;;;;;;5052513;28;19921;-77
2022/06/05 04:29:44;;;;;;;;;;;22.10;61.80;;;;;;5050702;28;20292;-77
2022/06/05 04:32:09;;;;;;;;;;;22.10;61.20;;;;;;5041186;28;20008;-77
2022/06/05 04:34:35;;;;;;;;;;;22.10;61.50;;;;;;5040168;28;20463;-77
2022/06/05 04:37:00;;;;;;;;;;;22.10;61.40;;;;;;5051734;28;20379;-77
2022/06/05 04:39:26;;;;;;;;;;;22.10;61.20;;;;;;5052051;28;20386;-77
2022/06/05 04:41:51;;;;;;;;;;;22.10;61.50;;;;;;5034128;28;19913;-77
2022/06/05 04:44:17;;;;;;;;;;;22.10;61.50;;;;;;5044483;28;19921;-77
2022/06/05 04:46:43;;;;;;;;;;;22.10;61.90;;;;;;5025653;28;19995;-77
2022/06/05 04:49:09;;;;;;;;;;;22.10;61.50;;;;;;5051766;28;19937;-77
2022/06/05 04:51:36;;;;;;;;;;;22.10;62.10;;;;;;5043722;28;19913;-77
2022/06/05 04:54:03;;;;;;;;;;;22.10;62.40;;;;;;5051406;28;19917;-77
2022/06/05 04:56:29;;;;;;;;;;;22.00;62.00;;;;;;5052174;28;19912;-77
2022/06/05 04:58:55;;;;;;;;;;;22.00;62.50;;;;;;5032594;28;20703;-77
2022/06/05 05:01:22;;;;;;;;;;;22.00;63.00;;;;;;5050973;28;19923;-77
2022/06/05 05:03:50;;;;;;;;;;;22.10;63.10;;;;;;5051049;28;20038;-78
2022/06/05 05:06:16;;;;;;;;;;;22.00;63.20;;;;;;5051749;28;19959;-78
2022/06/05 05:08:41;;;;;;;;;;;22.10;63.00;;;;;;5033202;28;19956;-78
2022/06/05 05:11:07;;;;;;;;;;;22.00;62.80;;;;;;5046650;28;20376;-78
2022/06/05 05:13:32;;;;;;;;;;;22.10;62.80;;;;;;5040949;28;19913;-78
2022/06/05 05:15:58;;;;;;;;;;;22.00;62.60;;;;;;5039449;28;20412;-78
2022/06/05 05:18:24;;;;;;;;;;;22.00;62.90;;;;;;5042366;28;19913;-78
2022/06/05 05:20:50;;;;;;;;;;;22.00;62.60;;;;;;5050775;28;19927;-78
2022/06/05 05:23:16;;;;;;;;;;;22.10;62.90;;;;;;5046584;28;20296;-78
2022/06/05 05:25:41;;;;;;;;;;;22.10;63.30;;;;;;5037553;28;19991;-78
2022/06/05 05:28:07;;;;;;;;;;;22.00;63.60;;;;;;5034426;28;19916;-77
2022/06/05 05:30:33;;;;;;;;;;;22.00;63.80;;;;;;5044519;28;19913;-77
2022/06/05 05:32:59;;;;;;;;;;;22.00;63.60;;;;;;5052294;28;19909;-77
2022/06/05 05:35:25;;;;;;;;;;;22.00;65.00;;;;;;5052112;28;20352;-77
2022/06/05 05:37:50;;;;;;;;;;;22.00;64.20;;;;;;5028921;28;19924;-77
2022/06/05 05:43:00;;;;;;;;;;;22.00;64.60;;;;;;5044182;28;19927;-77
2022/06/05 05:45:25;;;;;;;;;;;21.90;65.20;;;;;;5051288;28;20011;-77
2022/06/05 05:47:51;;;;;;;;;;;21.90;65.10;;;;;;5047442;28;19964;-77
2022/06/05 05:50:17;;;;;;;;;;;21.90;64.50;;;;;;5050750;28;19924;-77
2022/06/05 05:52:43;;;;;;;;;;;21.90;64.30;;;;;;5046484;28;19917;-77
2022/06/05 05:55:19;;;;;;;;;;;22.00;65.30;;;;;;5024157;28;19917;-77
2022/06/05 05:57:45;;;;;;;;;;;21.90;65.40;;;;;;5049827;28;19909;-78
2022/06/05 06:00:12;;;;;;;;;;;21.90;65.30;;;;;;5035498;28;19912;-78
2022/06/05 06:02:38;;;;;;;;;;;21.80;65.50;;;;;;5049136;28;19920;-77
2022/06/05 06:05:03;;;;;;;;;;;21.80;65.50;;;;;;5031237;28;19927;-78
2022/06/05 06:07:29;;;;;;;;;;;21.80;65.60;;;;;;5051074;28;20020;-77
2022/06/05 06:09:55;;;;;;;;;;;21.90;65.30;;;;;;5048205;28;19960;-77
2022/06/05 06:12:21;;;;;;;;;;;21.90;65.80;;;;;;5039430;28;19913;-77
2022/06/05 06:14:46;;;;;;;;;;;21.90;65.50;;;;;;5046085;28;19912;-77
2022/06/05 06:17:12;;;;;;;;;;;21.90;65.50;;;;;;5036709;28;20008;-77
2022/06/05 06:19:37;;;;;;;;;;;21.90;65.20;;;;;;5046353;28;20308;-77
2022/06/05 06:22:04;;;;;;;;;;;21.80;65.20;;;;;;5046876;28;19917;-76
2022/06/05 06:24:29;;;;;;;;;;;21.80;65.00;;;;;;5045142;28;19958;-76
2022/06/05 06:26:55;;;;;;;;;;;21.80;65.20;;;;;;5040010;28;19917;-77
2022/06/05 06:29:20;;;;;;;;;;;21.80;65.40;;;;;;5037058;28;19916;-76
2022/06/05 06:31:46;;;;;;;;;;;21.80;65.40;;;;;;5047952;28;19920;-79
2022/06/05 06:34:12;;;;;;;;;;;21.90;65.20;;;;;;5050295;28;20396;-79
2022/06/05 06:36:37;;;;;;;;;;;21.90;65.70;;;;;;5043211;28;19916;-79
2022/06/05 06:39:03;;;;;;;;;;;21.90;65.60;;;;;;5047728;28;19919;-79
2022/06/05 06:41:29;;;;;;;;;;;21.90;64.80;;;;;;5050075;28;19919;-78
2022/06/05 06:43:54;;;;;;;;;;;21.90;65.90;;;;;;5044918;28;20403;-78
2022/06/05 06:46:20;;;;;;;;;;;21.90;64.90;;;;;;5041116;28;19919;-78
2022/06/05 06:48:46;;;;;;;;;;;21.90;65.00;;;;;;5043769;28;20381;-77
2022/06/05 06:51:12;;;;;;;;;;;21.90;64.80;;;;;;5047395;28;19936;-78
2022/06/05 06:53:39;;;;;;;;;;;21.90;66.20;;;;;;5040595;28;20380;-78
2022/06/05 06:56:09;;;;;;;;;;;21.90;65.60;;;;;;5041518;28;19917;-78
2022/06/05 06:58:34;;;;;;;;;;;21.90;65.10;;;;;;5046269;28;19915;-78
2022/06/05 07:01:00;;;;;;;;;;;21.90;65.20;;;;;;5047595;28;19917;-79
2022/06/05 07:03:25;;;;;;;;;;;22.00;64.70;;;;;;5033773;28;19920;-78
2022/06/05 07:05:51;;;;;;;;;;;21.90;64.60;;;;;;5048607;28;19986;-79
2022/06/05 07:08:16;;;;;;;;;;;21.90;64.60;;;;;;5046267;28;20327;-79
2022/06/05 07:10:43;;;;;;;;;;;21.90;64.70;;;;;;5045818;28;20365;-78
2022/06/05 07:13:09;;;;;;;;;;;21.90;64.50;;;;;;5044308;28;19936;-79
2022/06/05 07:15:35;;;;;;;;;;;21.90;65.20;;;;;;5048304;28;20349;-79
2022/06/05 07:18:05;;;;;;;;;;;21.90;64.50;;;;;;5050714;28;19917;-78
2022/06/05 07:20:34;;;;;;;;;;;21.90;64.40;;;;;;5025159;28;20066;-79
2022/06/05 07:23:01;;;;;;;;;;;22.00;64.80;;;;;;5044438;28;19932;-79
2022/06/05 07:25:26;;;;;;;;;;;22.00;64.40;;;;;;5044971;28;20368;-79
2022/06/05 07:27:52;;;;;;;;;;;22.00;64.30;;;;;;5041102;28;19970;-77
2022/06/05 07:30:18;;;;;;;;;;;22.10;64.70;;;;;;5050006;28;20305;-77
2022/06/05 07:32:47;;;;;;;;;;;22.00;64.70;;;;;;5044530;28;19916;-77
2022/06/05 07:35:13;;;;;;;;;;;22.10;64.60;;;;;;5046815;28;20013;-78
2022/06/05 07:37:39;;;;;;;;;;;22.20;65.20;;;;;;5053161;28;19905;-78
2022/06/05 07:40:05;;;;;;;;;;;22.20;64.40;;;;;;5035036;28;19912;-78
2022/06/05 07:42:31;;;;;;;;;;;22.30;64.50;;;;;;5045950;28;19965;-77
2022/06/05 07:44:56;;;;;;;;;;;22.30;65.20;;;;;;5034420;28;19939;-78
2022/06/05 07:47:22;;;;;;;;;;;22.40;65.40;;;;;;5052850;28;20298;-79
2022/06/05 07:49:47;;;;;;;;;;;22.40;65.10;;;;;;5054289;28;19913;-78
2022/06/05 07:54:57;;;;;;;;;;;22.60;65.40;;;;;;5035091;28;20400;-78
2022/06/05 07:57:22;;;;;;;;;;;22.60;65.30;;;;;;5042734;28;19913;-78
2022/06/05 07:59:49;;;;;;;;;;;22.60;64.80;;;;;;5031822;28;19915;-78
2022/06/05 08:02:21;;;;;;;;;;;22.70;64.70;;;;;;5046372;28;19909;-78
2022/06/05 08:04:48;;;;;;;;;;;22.80;64.50;;;;;;5016588;28;19917;-79
2022/06/05 08:07:15;;;;;;;;;;;23.00;64.50;;;;;;5017106;28;20171;-80
2022/06/05 08:09:41;;;;;;;;;;;23.50;64.40;;;;;;5025394;28;19916;-80
2022/06/05 08:12:07;;;;;;;;;;;23.20;64.50;;;;;;5024538;28;19913;-78
2022/06/05 08:14:35;;;;;;;;;;;23.40;63.70;;;;;;5046832;28;19973;-79
2022/06/05 08:17:04;;;;;;;;;;;23.60;63.60;;;;;;5021815;28;19909;-79
2022/06/05 08:19:29;;;;;;;;;;;23.90;63.00;;;;;;5042425;28;19917;-79
2022/06/05 08:21:55;;;;;;;;;;;24.10;62.10;;;;;;5042115;28;19916;-79
2022/06/05 08:24:21;;;;;;;;;;;24.10;62.10;;;;;;5035665;28;19920;-79
2022/06/05 08:26:48;;;;;;;;;;;24.10;62.30;;;;;;5048846;28;20276;-81
2022/06/05 08:29:13;;;;;;;;;;;24.40;61.60;;;;;;5023047;28;20284;-81
2022/06/05 08:31:39;;;;;;;;;;;25.10;59.50;;;;;;5046226;28;19919;-80
2022/06/05 08:34:05;;;;;;;;;;;25.80;57.70;;;;;;5036580;28;19913;-79
2022/06/05 08:36:31;;;;;;;;;;;26.20;56.40;;;;;;5053448;28;19912;-79
2022/06/05 08:41:44;;;;;;;;;;;26.50;55.90;;;;;;5054267;28;19920;-80
2022/06/05 08:44:27;;;;;;;;;;;26.70;54.80;;;;;;5053077;28;19939;-80
2022/06/05 08:46:56;;;;;;;;;;;26.70;54.90;;;;;;5042614;28;19913;-80
2022/06/05 08:49:30;;;;;;;;;;;26.90;54.70;;;;;;5036298;28;20395;-79
2022/06/05 08:52:01;;;;;;;;;;;26.90;53.80;;;;;;5065354;28;19917;-79
2022/06/05 08:54:37;;;;;;;;;;;26.90;54.30;;;;;;5060060;28;19924;-79
2022/06/05 08:57:04;;;;;;;;;;;26.90;54.40;;;;;;5041427;28;20266;-79
2022/06/05 08:59:35;;;;;;;;;;;26.90;52.60;;;;;;5042606;28;19960;-77
2022/06/05 09:02:24;;;;;;;;;;;26.80;53.00;;;;;;5028735;28;20273;-77
2022/06/05 09:04:50;;;;;;;;;;;26.60;54.80;;;;;;5036636;28;19947;-77
2022/06/05 09:07:18;;;;;;;;;;;26.30;55.50;;;;;;5032698;28;20460;-77
2022/06/05 09:09:50;;;;;;;;;;;26.00;55.80;;;;;;5032609;28;20368;-78
2022/06/05 09:12:16;;;;;;;;;;;25.80;55.40;;;;;;5021213;28;19991;-78
2022/06/05 09:14:48;;;;;;;;;;;25.60;57.00;;;;;;5040961;28;19952;-78
2022/06/05 09:17:17;;;;;;;;;;;25.50;56.90;;;;;;5040838;28;19921;-78
2022/06/05 09:19:43;;;;;;;;;;;25.40;56.80;;;;;;5042449;28;19913;-80
2022/06/05 09:22:18;;;;;;;;;;;25.20;57.20;;;;;;5042014;28;20072;-78
2022/06/05 09:24:59;;;;;;;;;;;25.10;58.50;;;;;;5041791;28;19963;-79
2022/06/05 09:27:39;;;;;;;;;;;25.00;58.90;;;;;;5053048;28;19944;-78
2022/06/05 09:30:09;;;;;;;;;;;25.10;59.10;;;;;;5042550;28;20372;-79
2022/06/05 09:32:53;;;;;;;;;;;25.20;59.10;;;;;;5042947;28;20249;-78
2022/06/05 09:35:31;;;;;;;;;;;25.40;58.50;;;;;;5025658;28;19916;-78
2022/06/05 09:38:10;;;;;;;;;;;25.20;58.60;;;;;;5033016;28;19913;-78
2022/06/05 09:40:36;;;;;;;;;;;25.10;58.90;;;;;;5032674;28;20411;-78
2022/06/05 09:43:11;;;;;;;;;;;24.90;59.40;;;;;;5032720;28;19913;-78
2022/06/05 09:45:49;;;;;;;;;;;24.90;59.90;;;;;;5045200;28;19917;-78
2022/06/05 09:48:15;;;;;;;;;;;24.80;59.70;;;;;;5028453;28;20000;-78
2022/06/05 09:50:41;;;;;;;;;;;24.80;60.60;;;;;;5033133;28;20453;-78
2022/06/05 09:53:21;;;;;;;;;;;24.80;60.60;;;;;;5037783;28;19913;-78
2022/06/05 09:56:07;;;;;;;;;;;24.70;60.00;;;;;;5050442;28;19951;-78
2022/06/05 09:58:47;;;;;;;;;;;24.60;60.70;;;;;;5049844;28;19960;-78
2022/06/05 10:01:46;;;;;;;;;;;24.50;61.20;;;;;;5037753;28;19919;-78
2022/06/05 10:04:11;;;;;;;;;;;24.40;61.50;;;;;;5031630;28;20384;-78
2022/06/05 10:06:41;;;;;;;;;;;24.40;61.30;;;;;;5031867;28;19913;-78
2022/06/05 10:09:07;;;;;;;;;;;24.30;61.30;;;;;;5031595;28;19920;-78
2022/06/05 10:11:48;;;;;;;;;;;24.30;61.20;;;;;;5039261;28;19913;-78
2022/06/05 10:14:13;;;;;;;;;;;24.20;60.90;;;;;;5037231;28;20055;-78
2022/06/05 10:16:51;;;;;;;;;;;24.10;61.20;;;;;;5031668;28;20410;-78
2022/06/05 10:19:29;;;;;;;;;;;24.00;61.80;;;;;;5031356;28;19909;-78
2022/06/05 10:21:58;;;;;;;;;;;23.90;62.10;;;;;;5032083;28;20005;-78
2022/06/05 10:24:23;;;;;;;;;;;23.80;62.10;;;;;;5040214;28;20016;-78
2022/06/05 10:26:51;;;;;;;;;;;23.70;62.00;;;;;;5050146;28;19947;-78
2022/06/05 10:29:18;;;;;;;;;;;23.70;62.40;;;;;;5050975;28;19931;-78
2022/06/05 10:31:59;;;;;;;;;;;23.60;63.10;;;;;;5041233;28;19913;-78
2022/06/05 10:34:30;;;;;;;;;;;23.60;63.00;;;;;;5035254;28;19917;-78
2022/06/05 10:37:31;;;;;;;;;;;23.50;62.90;;;;;;5044528;28;20391;-77
2022/06/05 10:40:01;;;;;;;;;;;23.50;63.00;;;;;;4989142;28;19917;-77
2022/06/05 10:42:29;;;;;;;;;;;23.40;63.10;;;;;;5038750;28;19919;-78
2022/06/05 10:45:06;;;;;;;;;;;23.40;63.10;;;;;;5020416;28;20415;-78
2022/06/05 10:47:39;;;;;;;;;;;23.40;63.50;;;;;;5031987;28;20348;-78
2022/06/05 10:50:11;;;;;;;;;;;23.30;63.30;;;;;;5012963;28;19920;-78
2022/06/05 10:52:39;;;;;;;;;;;23.40;63.40;;;;;;5031352;28;19913;-78
2022/06/05 10:55:19;;;;;;;;;;;23.30;63.10;;;;;;5031189;28;19945;-78
2022/06/05 10:57:58;;;;;;;;;;;23.30;63.40;;;;;;5038762;28;19909;-78
2022/06/05 11:00:27;;;;;;;;;;;23.30;63.60;;;;;;5020622;28;19909;-78
2022/06/05 11:03:05;;;;;;;;;;;23.10;63.30;;;;;;5026866;28;20297;-78
2022/06/05 11:05:31;;;;;;;;;;;23.30;64.00;;;;;;5047607;28;19939;-78
2022/06/05 11:08:05;;;;;;;;;;;23.20;63.80;;;;;;5027896;28;20380;-78
2022/06/05 11:13:40;;;;;;;;;;;23.20;63.80;;;;;;5038475;28;20363;-77
2022/06/05 11:16:10;;;;;;;;;;;23.30;63.80;;;;;;5047781;28;19964;-77
2022/06/05 11:18:44;;;;;;;;;;;23.50;63.70;;;;;;5053999;28;19913;-77
2022/06/05 11:21:10;;;;;;;;;;;23.70;63.20;;;;;;5049492;28;19912;-77
2022/06/05 11:23:40;;;;;;;;;;;23.80;62.70;;;;;;5037994;28;19964;-77
2022/06/05 11:26:11;;;;;;;;;;;23.90;62.40;;;;;;5031735;28;20011;-78
2022/06/05 11:28:47;;;;;;;;;;;23.90;62.40;;;;;;5046771;28;20048;-78
2022/06/05 11:31:36;;;;;;;;;;;23.80;62.80;;;;;;5045887;28;20391;-77
2022/06/05 11:34:01;;;;;;;;;;;23.70;62.70;;;;;;5042112;28;20292;-77
2022/06/05 11:36:29;;;;;;;;;;;23.70;62.90;;;;;;5054634;28;20393;-78
2022/06/05 11:39:04;;;;;;;;;;;23.70;62.80;;;;;;5055377;28;19917;-79
2022/06/05 11:41:37;;;;;;;;;;;23.80;62.90;;;;;;5024679;28;19952;-79
2022/06/05 11:44:18;;;;;;;;;;;23.90;62.60;;;;;;5038641;28;19924;-79
2022/06/05 11:46:49;;;;;;;;;;;23.80;62.40;;;;;;5038599;28;19937;-78
2022/06/05 11:49:18;;;;;;;;;;;23.90;62.60;;;;;;5019529;28;19909;-78
2022/06/05 11:52:04;;;;;;;;;;;23.90;62.30;;;;;;5037225;28;19919;-78
2022/06/05 11:54:37;;;;;;;;;;;23.90;62.90;;;;;;5037109;28;19963;-78
2022/06/05 11:57:03;;;;;;;;;;;23.80;62.70;;;;;;5037360;28;19920;-78
2022/06/05 11:59:31;;;;;;;;;;;23.80;63.00;;;;;;5036773;28;19913;-78
2022/06/05 12:02:17;;;;;;;;;;;23.70;63.10;;;;;;5037324;28;19913;-78
2022/06/05 12:05:01;;;;;;;;;;;23.70;63.20;;;;;;5036136;28;19975;-78
2022/06/05 12:07:27;;;;;;;;;;;23.60;63.00;;;;;;5037425;28;20688;-78
2022/06/05 12:09:55;;;;;;;;;;;23.60;63.10;;;;;;5036759;28;19912;-78
2022/06/05 12:12:22;;;;;;;;;;;23.60;63.20;;;;;;5034584;28;19917;-78
2022/06/05 12:14:51;;;;;;;;;;;23.60;63.30;;;;;;5033771;28;19956;-78
2022/06/05 12:17:20;;;;;;;;;;;23.70;63.50;;;;;;5016049;28;19967;-78
2022/06/05 12:19:48;;;;;;;;;;;23.70;63.30;;;;;;5035896;28;20363;-78
2022/06/05 12:22:17;;;;;;;;;;;23.90;63.20;;;;;;5052869;28;19913;-79
2022/06/05 12:24:57;;;;;;;;;;;23.90;63.30;;;;;;5052591;28;19944;-79
2022/06/05 12:27:22;;;;;;;;;;;24.00;63.00;;;;;;5052542;28;19912;-78
2022/06/05 12:29:48;;;;;;;;;;;24.10;62.40;;;;;;5052356;28;20297;-77
2022/06/05 12:32:33;;;;;;;;;;;24.30;62.20;;;;;;5051885;28;19913;-77
2022/06/05 12:34:59;;;;;;;;;;;24.40;62.00;;;;;;5021428;28;19909;-78
2022/06/05 12:37:40;;;;;;;;;;;24.50;60.60;;;;;;5054906;28;19909;-79
2022/06/05 12:40:15;;;;;;;;;;;24.50;60.10;;;;;;5055108;28;19909;-79
2022/06/05 12:42:49;;;;;;;;;;;24.60;59.50;;;;;;5037564;28;19980;-79
2022/06/05 12:45:17;;;;;;;;;;;24.50;60.30;;;;;;5055491;28;19908;-79
2022/06/05 12:47:51;;;;;;;;;;;24.40;60.60;;;;;;5055127;28;19912;-79
2022/06/05 12:50:28;;;;;;;;;;;24.30;60.90;;;;;;5054623;28;20393;-78
2022/06/05 12:52:57;;;;;;;;;;;24.10;60.60;;;;;;5055127;28;19970;-78
2022/06/05 12:55:29;;;;;;;;;;;24.10;61.40;;;;;;5055141;28;19913;-79
2022/06/05 12:57:59;;;;;;;;;;;24.00;61.50;;;;;;5055100;28;19920;-79
2022/06/05 13:00:44;;;;;;;;;;;23.90;61.60;;;;;;5054560;28;19913;-79
2022/06/05 13:03:19;;;;;;;;;;;23.80;61.70;;;;;;5055405;28;20007;-79
2022/06/05 13:05:54;;;;;;;;;;;23.80;62.00;;;;;;5037289;28;19921;-79
2022/06/05 13:08:37;;;;;;;;;;;23.80;62.10;;;;;;5037292;28;20368;-79
2022/06/05 13:11:06;;;;;;;;;;;23.90;62.20;;;;;;5056045;28;20300;-79
2022/06/05 13:13:41;;;;;;;;;;;23.90;61.60;;;;;;5058801;28;19916;-80
2022/06/05 13:16:14;;;;;;;;;;;24.00;61.60;;;;;;5060497;28;19919;-80
2022/06/05 13:18:42;;;;;;;;;;;24.10;61.40;;;;;;5073924;28;19909;-79
2022/06/05 13:21:23;;;;;;;;;;;24.10;61.30;;;;;;5062444;28;19916;-79
2022/06/05 13:24:10;;;;;;;;;;;24.20;61.10;;;;;;5034349;28;20127;-79
2022/06/05 13:26:47;;;;;;;;;;;24.20;61.40;;;;;;5052890;28;19916;-79
2022/06/05 13:29:31;;;;;;;;;;;24.30;61.30;;;;;;5052610;28;19909;-79
2022/06/05 13:32:05;;;;;;;;;;;24.30;61.00;;;;;;5052775;28;19908;-79
2022/06/05 13:34:44;;;;;;;;;;;24.10;61.60;;;;;;5052689;28;19913;-78
2022/06/05 13:37:13;;;;;;;;;;;24.20;61.70;;;;;;5052582;28;19917;-79
2022/06/05 13:39:41;;;;;;;;;;;24.30;60.60;;;;;;5052459;28;19978;-79
2022/06/05 13:42:18;;;;;;;;;;;24.30;60.50;;;;;;5052471;28;19952;-80
2022/06/05 13:44:48;;;;;;;;;;;24.30;61.10;;;;;;5052252;28;20012;-79
2022/06/05 13:47:17;;;;;;;;;;;24.20;61.10;;;;;;5052512;28;19908;-79
2022/06/05 13:49:57;;;;;;;;;;;24.20;61.40;;;;;;5034120;28;19913;-79
2022/06/05 13:52:43;;;;;;;;;;;24.20;61.30;;;;;;5052330;28;20349;-80
2022/06/05 13:55:25;;;;;;;;;;;24.20;61.90;;;;;;5010752;28;19948;-78
2022/06/05 13:57:57;;;;;;;;;;;24.10;61.30;;;;;;5052119;28;19908;-77
2022/06/05 14:00:26;;;;;;;;;;;24.10;61.40;;;;;;5033500;28;19996;-78
2022/06/05 14:03:00;;;;;;;;;;;24.10;61.30;;;;;;5051670;28;19913;-79
2022/06/05 14:05:32;;;;;;;;;;;24.00;61.80;;;;;;5051691;28;20050;-80
2022/06/05 14:08:05;;;;;;;;;;;24.00;61.80;;;;;;5051275;28;19971;-78
2022/06/05 14:10:33;;;;;;;;;;;24.00;61.80;;;;;;5050407;28;19966;-78
2022/06/05 14:13:12;;;;;;;;;;;23.90;61.90;;;;;;5045313;28;21727;-78
2022/06/05 14:15:37;;;;;;;;;;;23.90;62.00;;;;;;5049486;28;19916;-78
2022/06/05 14:18:03;;;;;;;;;;;23.80;61.90;;;;;;5031479;28;19956;-78
2022/06/05 14:20:32;;;;;;;;;;;23.70;61.60;;;;;;5043305;28;19924;-80
2022/06/05 14:22:59;;;;;;;;;;;23.70;61.60;;;;;;5030636;28;19936;-78
2022/06/05 14:25:35;;;;;;;;;;;23.70;61.50;;;;;;5045873;28;20257;-77
2022/06/05 14:28:06;;;;;;;;;;;23.80;61.50;;;;;;5048706;28;19962;-79
2022/06/05 14:30:32;;;;;;;;;;;23.80;61.50;;;;;;5051338;28;19913;-79
2022/06/05 14:32:59;;;;;;;;;;;23.80;61.50;;;;;;5049532;28;19912;-79
2022/06/05 14:35:33;;;;;;;;;;;23.90;61.60;;;;;;5027991;28;20284;-78
2022/06/05 14:37:59;;;;;;;;;;;23.90;61.20;;;;;;5050190;28;19916;-80
2022/06/05 14:40:29;;;;;;;;;;;23.90;61.10;;;;;;5048715;28;19958;-80
2022/06/05 14:42:55;;;;;;;;;;;23.90;61.30;;;;;;5049737;28;19932;-80
2022/06/05 14:45:22;;;;;;;;;;;23.90;60.90;;;;;;5048903;28;20062;-80